Time;durP1;ratioP1;P1;durP2;ratioP2;P2;SDS_P1;SDS_P2;PMS_P1;PMS_P2;Temp;Humidity;BMP_temperature;BMP_pressure;BME280_temperature;BME280_humidity;BME280_pressure;Samples;Min_cycle;Max_cycle;Signal;HPM_P1;HPM_P2
2023/02/23 00:01:52;;;;;;;21.67;13.27;;;2.70;99.90;;;;;;4934126;29;20229;-79
2023/02/23 00:04:19;;;;;;;23.60;13.65;;;2.80;99.90;;;;;;4936294;29;20215;-81
2023/02/23 00:06:47;;;;;;;32.97;16.17;;;2.80;99.90;;;;;;4928205;29;20240;-80
2023/02/23 00:09:22;;;;;;;36.13;15.65;;;2.70;99.90;;;;;;4932057;29;20302;-80
2023/02/23 00:11:56;;;;;;;25.70;15.50;;;2.70;99.90;;;;;;4920281;29;20217;-80
2023/02/23 00:14:29;;;;;;;35.15;15.57;;;2.70;99.90;;;;;;4932839;29;20209;-79
2023/02/23 00:16:58;;;;;;;23.23;14.43;;;2.60;99.90;;;;;;4927383;29;20285;-80
2023/02/23 00:19:26;;;;;;;21.92;14.23;;;2.60;99.90;;;;;;4938635;29;20209;-81
2023/02/23 00:21:53;;;;;;;24.75;14.10;;;2.50;99.90;;;;;;4940050;29;20210;-81
2023/02/23 00:24:21;;;;;;;32.80;16.63;;;2.50;99.90;;;;;;4935607;29;20209;-81
2023/02/23 00:26:50;;;;;;;28.00;15.52;;;2.40;99.90;;;;;;4942120;29;20258;-80
2023/02/23 00:29:20;;;;;;;23.20;14.45;;;2.50;99.90;;;;;;4932205;29;20234;-79
2023/02/23 00:31:49;;;;;;;24.65;13.52;;;2.50;99.90;;;;;;4934815;29;20237;-81
2023/02/23 00:34:19;;;;;;;29.35;15.07;;;2.50;99.90;;;;;;4940871;29;20201;-80
2023/02/23 00:36:55;;;;;;;24.88;14.95;;;2.50;99.90;;;;;;4937230;29;20205;-81
2023/02/23 00:39:27;;;;;;;22.48;15.35;;;2.40;99.90;;;;;;4932474;29;20256;-80
2023/02/23 00:42:01;;;;;;;30.27;16.92;;;2.50;99.90;;;;;;4929551;29;20203;-80
2023/02/23 00:44:28;;;;;;;31.90;15.40;;;2.40;99.90;;;;;;4936095;29;20209;-83
2023/02/23 00:46:55;;;;;;;25.13;15.02;;;2.30;99.90;;;;;;4935621;29;20290;-79
2023/02/23 00:49:22;;;;;;;23.77;13.55;;;2.30;99.90;;;;;;4925199;29;20456;-80
2023/02/23 00:51:50;;;;;;;25.52;14.35;;;2.20;99.90;;;;;;4929571;29;20222;-79
2023/02/23 00:54:20;;;;;;;24.98;15.23;;;2.40;99.90;;;;;;4936374;29;20210;-80
2023/02/23 00:56:48;;;;;;;27.35;16.40;;;2.30;99.90;;;;;;4919478;29;20240;-81
2023/02/23 00:59:15;;;;;;;26.65;16.38;;;2.30;99.90;;;;;;4934874;29;20254;-79
2023/02/23 01:01:42;;;;;;;23.50;15.85;;;2.20;99.90;;;;;;4920009;29;20518;-80
2023/02/23 01:04:10;;;;;;;26.13;17.52;;;2.30;99.90;;;;;;4933752;29;20241;-80
2023/02/23 01:06:39;;;;;;;43.17;18.90;;;2.10;99.90;;;;;;4936732;29;20257;-81
2023/02/23 01:09:09;;;;;;;32.55;15.52;;;2.20;99.90;;;;;;4947832;29;20269;-81
2023/02/23 01:11:36;;;;;;;30.08;15.73;;;2.20;99.90;;;;;;4956725;29;20230;-79
2023/02/23 01:14:03;;;;;;;29.27;17.17;;;2.20;99.90;;;;;;4953515;28;20198;-78
2023/02/23 01:16:32;;;;;;;24.98;15.70;;;2.10;99.90;;;;;;4944850;29;20219;-79
2023/02/23 01:19:02;;;;;;;30.90;18.42;;;2.20;99.90;;;;;;4952426;29;20221;-78
2023/02/23 01:21:40;;;;;;;29.98;17.23;;;2.20;99.90;;;;;;4940197;29;20210;-79
2023/02/23 01:24:08;;;;;;;38.13;17.17;;;2.10;99.90;;;;;;4930304;29;20252;-79
2023/02/23 01:26:38;;;;;;;23.30;16.67;;;2.10;99.90;;;;;;4936922;29;20240;-79
2023/02/23 01:29:12;;;;;;;28.63;16.42;;;2.00;99.90;;;;;;4930241;29;20255;-78
2023/02/23 01:31:41;;;;;;;27.92;16.88;;;2.00;99.90;;;;;;4935204;29;20218;-78
2023/02/23 01:34:11;;;;;;;29.08;17.95;;;2.00;99.90;;;;;;4926291;29;20280;-77
2023/02/23 01:36:40;;;;;;;25.65;16.23;;;2.00;99.90;;;;;;4931980;29;20217;-79
2023/02/23 01:39:11;;;;;;;32.60;16.75;;;2.00;99.90;;;;;;4935237;29;20218;-79
2023/02/23 01:41:41;;;;;;;29.88;18.40;;;2.00;99.90;;;;;;4930895;29;20214;-78
2023/02/23 01:44:30;;;;;;;29.95;15.57;;;1.90;99.90;;;;;;4932060;29;20201;-80
2023/02/23 01:46:57;;;;;;;35.35;17.25;;;2.00;99.90;;;;;;4925629;29;20213;-79
2023/02/23 01:49:30;;;;;;;27.05;17.65;;;1.80;99.90;;;;;;4931652;29;20225;-79
2023/02/23 01:52:06;;;;;;;26.02;16.23;;;1.80;99.90;;;;;;4929853;29;20218;-80
2023/02/23 01:54:36;;;;;;;30.90;16.33;;;1.90;99.90;;;;;;4932550;29;20719;-79
2023/02/23 01:57:06;;;;;;;28.05;15.70;;;2.00;99.90;;;;;;4941440;29;20205;-80
2023/02/23 01:59:40;;;;;;;25.48;14.93;;;1.80;99.90;;;;;;4932929;29;20282;-80
2023/02/23 02:02:08;;;;;;;35.58;17.95;;;1.70;99.90;;;;;;4922282;29;20212;-80
2023/02/23 02:04:43;;;;;;;29.45;15.05;;;1.70;99.90;;;;;;4934704;29;20194;-79
2023/02/23 02:07:29;;;;;;;24.65;15.85;;;1.80;99.90;;;;;;4933329;29;20207;-79
2023/02/23 02:12:53;;;;;;;27.85;16.67;;;1.80;99.90;;;;;;4931186;29;20216;-80
2023/02/23 02:15:30;;;;;;;26.10;16.83;;;1.80;99.90;;;;;;4933462;29;20206;-79
2023/02/23 02:18:22;;;;;;;29.23;16.80;;;1.70;99.90;;;;;;4929962;29;20212;-79
2023/02/23 02:21:28;;;;;;;31.63;16.95;;;1.70;99.90;;;;;;4930210;29;20741;-79
2023/02/23 02:24:29;;;;;;;36.78;16.65;;;1.70;99.90;;;;;;4927419;29;20211;-81
2023/02/23 02:27:10;;;;;;;23.35;15.60;;;1.70;99.90;;;;;;4923477;29;20496;-79
2023/02/23 02:29:46;;;;;;;27.63;15.80;;;1.60;99.90;;;;;;4924835;29;20291;-80
2023/02/23 02:32:28;;;;;;;22.60;15.68;;;1.60;99.90;;;;;;4938008;29;20276;-77
2023/02/23 02:35:20;;;;;;;30.33;18.67;;;1.60;99.90;;;;;;4921974;29;20222;-78
2023/02/23 02:37:47;;;;;;;33.30;18.63;;;1.60;99.90;;;;;;4930122;29;20261;-79
2023/02/23 02:40:17;;;;;;;23.13;16.73;;;1.60;99.90;;;;;;4927864;29;20243;-78
2023/02/23 02:43:10;;;;;;;30.23;16.25;;;1.50;99.90;;;;;;4927249;29;20278;-80
2023/02/23 02:45:52;;;;;;;38.17;21.70;;;1.40;99.90;;;;;;4924707;29;20211;-78
2023/02/23 02:48:29;;;;;;;37.03;17.23;;;1.50;99.90;;;;;;4935191;29;20244;-78
2023/02/23 02:51:00;;;;;;;37.47;17.77;;;1.50;99.90;;;;;;4925075;29;20255;-78
2023/02/23 02:53:45;;;;;;;23.75;17.55;;;1.50;99.90;;;;;;4936822;29;20256;-78
2023/02/23 02:56:18;;;;;;;29.92;18.20;;;1.40;99.90;;;;;;4926509;29;20204;-79
2023/02/23 02:58:48;;;;;;;30.23;20.17;;;1.40;99.90;;;;;;4932220;29;20217;-77
2023/02/23 04:18:25;;;;;;;43.20;22.98;;;1.50;99.90;;;;;;4922198;29;20272;-82
2023/02/23 04:20:54;;;;;;;55.88;26.17;;;1.50;99.90;;;;;;4925068;29;20214;-81
2023/02/23 04:23:22;;;;;;;35.40;22.35;;;1.60;99.90;;;;;;4925077;29;20215;-83
2023/02/23 04:25:50;;;;;;;41.28;26.30;;;1.60;99.90;;;;;;4933047;29;20257;-81
2023/02/23 04:28:18;;;;;;;46.88;25.88;;;1.60;99.90;;;;;;4927400;29;20232;-81
2023/02/23 04:30:46;;;;;;;41.42;25.73;;;1.50;99.90;;;;;;4928852;29;20268;-82
2023/02/23 04:33:13;;;;;;;41.63;25.58;;;1.50;99.90;;;;;;4921582;29;20283;-82
2023/02/23 04:35:40;;;;;;;48.03;25.75;;;1.50;99.90;;;;;;4929054;29;20216;-81
2023/02/23 04:38:10;;;;;;;45.28;24.25;;;1.50;99.90;;;;;;4925876;29;20216;-81
2023/02/23 04:40:37;;;;;;;39.67;24.40;;;1.50;99.90;;;;;;4945138;28;20204;-81
2023/02/23 04:43:05;;;;;;;52.40;28.60;;;1.60;99.90;;;;;;4934183;29;20200;-81
2023/02/23 04:45:32;;;;;;;54.40;28.08;;;1.60;99.90;;;;;;4936339;29;20229;-82
2023/02/23 04:47:59;;;;;;;48.35;28.42;;;1.60;99.90;;;;;;4943361;28;20248;-81
2023/02/23 04:50:27;;;;;;;49.60;28.00;;;1.60;99.90;;;;;;4940506;29;20272;-81
2023/02/23 04:52:56;;;;;;;55.05;27.75;;;1.60;99.90;;;;;;4926652;29;20222;-81
2023/02/23 04:55:24;;;;;;;44.40;29.60;;;1.60;99.90;;;;;;4927262;29;20204;-80
2023/02/23 04:57:57;;;;;;;44.40;26.42;;;1.50;99.90;;;;;;4929175;29;20256;-81
2023/02/23 05:00:26;;;;;;;51.65;30.77;;;1.50;99.90;;;;;;4929181;29;20200;-82
2023/02/23 05:02:53;;;;;;;47.03;29.25;;;1.50;99.90;;;;;;4929668;29;20212;-80
2023/02/23 05:05:20;;;;;;;48.33;28.90;;;1.60;99.90;;;;;;4924566;29;20261;-81
2023/02/23 05:07:47;;;;;;;50.67;28.90;;;1.60;99.90;;;;;;4920829;29;20331;-83
2023/02/23 05:10:15;;;;;;;46.13;29.58;;;1.50;99.90;;;;;;4931136;29;20555;-82
2023/02/23 05:12:42;;;;;;;57.42;30.55;;;1.60;99.90;;;;;;4926411;29;20212;-81
2023/02/23 05:15:09;;;;;;;48.40;29.63;;;1.50;99.90;;;;;;4926315;29;20264;-80
2023/02/23 05:17:40;;;;;;;54.72;31.08;;;1.60;99.90;;;;;;4930732;29;20248;-81
2023/02/23 05:20:09;;;;;;;63.13;33.17;;;1.50;99.90;;;;;;4927969;29;20208;-81
2023/02/23 05:22:36;;;;;;;47.42;30.67;;;1.40;99.90;;;;;;4924643;29;20221;-81
2023/02/23 05:25:03;;;;;;;48.88;30.30;;;1.50;99.90;;;;;;4931162;29;20544;-81
2023/02/23 05:27:32;;;;;;;57.83;29.88;;;1.50;99.90;;;;;;4923085;29;20277;-81
2023/02/23 05:30:00;;;;;;;53.65;31.80;;;1.50;99.90;;;;;;4937791;29;20477;-82
2023/02/23 05:32:27;;;;;;;52.70;32.03;;;1.50;99.90;;;;;;4926381;29;20206;-80
2023/02/23 05:34:54;;;;;;;50.70;31.10;;;1.50;99.90;;;;;;4924560;29;20213;-81
2023/02/23 05:37:29;;;;;;;62.20;32.17;;;1.60;99.90;;;;;;4925251;29;20252;-81
2023/02/23 05:39:55;;;;;;;61.85;35.15;;;1.50;99.90;;;;;;4931936;29;20452;-84
2023/02/23 05:42:23;;;;;;;57.00;32.58;;;1.60;99.90;;;;;;4926129;29;20266;-84
2023/02/23 05:44:51;;;;;;;57.38;32.78;;;1.50;99.90;;;;;;4930999;29;20209;-83
2023/02/23 05:47:18;;;;;;;57.58;34.15;;;1.40;99.90;;;;;;4925724;29;20209;-83
2023/02/23 05:49:46;;;;;;;65.68;34.47;;;1.40;99.90;;;;;;4927767;29;20228;-83
2023/02/23 05:52:14;;;;;;;48.53;31.02;;;1.60;99.90;;;;;;4934190;29;20209;-83
2023/02/23 05:54:41;;;;;;;58.53;33.58;;;1.50;99.90;;;;;;4951774;28;20206;-84
2023/02/23 05:57:08;;;;;;;60.65;34.17;;;1.60;99.90;;;;;;4956683;28;20236;-81
2023/02/23 05:59:35;;;;;;;58.90;35.53;;;1.50;99.90;;;;;;4940241;29;20330;-85
2023/02/23 06:02:04;;;;;;;57.15;34.40;;;1.60;99.90;;;;;;4942226;28;20244;-81
2023/02/23 06:04:37;;;;;;;54.83;32.70;;;1.60;99.90;;;;;;4932579;29;20202;-82
2023/02/23 06:07:04;;;;;;;49.33;31.27;;;1.60;99.90;;;;;;4933825;29;20220;-83
2023/02/23 06:09:31;;;;;;;55.47;31.30;;;1.60;99.90;;;;;;4931055;29;20594;-82
2023/02/23 06:11:59;;;;;;;56.63;36.80;;;1.70;99.90;;;;;;4935763;29;20232;-82
2023/02/23 06:14:26;;;;;;;56.20;33.03;;;1.60;99.90;;;;;;4934412;29;20754;-82
2023/02/23 06:16:54;;;;;;;52.78;33.13;;;1.60;99.90;;;;;;4931576;29;20303;-81
2023/02/23 06:19:21;;;;;;;71.35;36.47;;;1.60;99.90;;;;;;4923925;29;20213;-82
2023/02/23 06:21:48;;;;;;;53.85;35.60;;;1.70;99.90;;;;;;4923005;29;20215;-81
2023/02/23 06:24:15;;;;;;;56.88;34.33;;;1.70;99.90;;;;;;4923256;29;20210;-82
2023/02/23 06:26:42;;;;;;;58.40;33.67;;;1.70;99.90;;;;;;4923529;29;20216;-82
2023/02/23 06:29:10;;;;;;;59.47;35.50;;;1.80;99.90;;;;;;4933937;29;20300;-82
2023/02/23 06:31:39;;;;;;;63.80;36.28;;;1.80;99.90;;;;;;4923080;29;20245;-81
2023/02/23 06:34:06;;;;;;;57.15;32.70;;;1.90;99.90;;;;;;4927092;29;20213;-81
2023/02/23 06:36:32;;;;;;;59.78;34.35;;;1.90;99.90;;;;;;4923967;29;20212;-81
2023/02/23 06:39:00;;;;;;;55.33;34.80;;;2.00;99.90;;;;;;4946108;29;20208;-82
2023/02/23 06:41:27;;;;;;;57.63;34.55;;;2.00;99.90;;;;;;4946160;29;20206;-82
2023/02/23 06:43:57;;;;;;;53.25;36.03;;;2.10;99.90;;;;;;4937084;29;20206;-82
2023/02/23 06:46:25;;;;;;;55.63;33.17;;;2.20;99.90;;;;;;4938741;29;20253;-81
2023/02/23 06:48:56;;;;;;;62.60;35.70;;;2.20;99.90;;;;;;4926672;29;20682;-82
2023/02/23 06:51:23;;;;;;;60.30;33.75;;;2.20;99.90;;;;;;4936593;29;20208;-80
2023/02/23 06:53:53;;;;;;;55.85;34.40;;;2.30;99.90;;;;;;4932913;29;20214;-82
2023/02/23 06:56:20;;;;;;;49.83;33.90;;;2.30;99.90;;;;;;4924529;29;20225;-81
2023/02/23 06:58:47;;;;;;;50.55;32.78;;;2.40;99.90;;;;;;4929427;29;20236;-81
2023/02/23 07:01:15;;;;;;;55.25;31.60;;;2.40;99.90;;;;;;4909817;29;20255;-82
2023/02/23 07:03:43;;;;;;;52.00;34.97;;;2.50;99.90;;;;;;4920850;29;20207;-80
2023/02/23 07:06:09;;;;;;;50.50;32.40;;;2.60;99.90;;;;;;4921759;29;20570;-82
2023/02/23 07:08:37;;;;;;;47.78;30.25;;;2.60;99.90;;;;;;4921666;29;20282;-80
2023/02/23 07:11:09;;;;;;;50.97;33.28;;;2.60;99.90;;;;;;4921443;29;20266;-81
2023/02/23 07:13:36;;;;;;;61.88;33.00;;;2.60;99.90;;;;;;4932645;29;20490;-80
2023/02/23 07:16:03;;;;;;;68.97;35.03;;;2.70;99.90;;;;;;4933884;29;20257;-80
2023/02/23 07:18:30;;;;;;;52.45;32.60;;;2.80;99.90;;;;;;4932308;29;20221;-82
2023/02/23 07:20:57;;;;;;;53.55;32.17;;;2.80;99.90;;;;;;4922136;29;20219;-80
2023/02/23 07:23:24;;;;;;;53.33;32.78;;;2.90;99.90;;;;;;4921925;29;20519;-80
2023/02/23 07:25:52;;;;;;;50.97;30.10;;;3.00;99.90;;;;;;4929697;29;20206;-82
2023/02/23 07:28:20;;;;;;;50.20;29.88;;;3.20;99.90;;;;;;4923913;29;20360;-80
2023/02/23 07:30:48;;;;;;;54.20;30.35;;;3.20;99.90;;;;;;4913672;29;20614;-82
2023/02/23 07:33:15;;;;;;;53.55;29.45;;;3.20;99.90;;;;;;4925000;29;20210;-82
2023/02/23 07:35:44;;;;;;;66.68;31.42;;;3.30;99.90;;;;;;4928973;29;20426;-82
2023/02/23 07:38:11;;;;;;;44.70;29.17;;;3.30;99.90;;;;;;4921404;29;20227;-80
2023/02/23 07:40:38;;;;;;;46.22;27.77;;;3.40;99.90;;;;;;4922892;29;20216;-80
2023/02/23 07:43:06;;;;;;;47.10;31.33;;;3.50;99.90;;;;;;4929327;29;20495;-81
2023/02/23 07:45:33;;;;;;;52.35;30.05;;;3.70;99.90;;;;;;4921580;29;20212;-82
2023/02/23 07:48:00;;;;;;;43.40;28.10;;;4.00;99.90;;;;;;4913135;29;20232;-80
2023/02/23 07:50:27;;;;;;;37.63;26.58;;;4.20;99.90;;;;;;4929255;29;20559;-81
2023/02/23 07:52:54;;;;;;;41.13;26.50;;;4.50;99.90;;;;;;4930168;29;20208;-82
2023/02/23 07:55:21;;;;;;;51.55;28.83;;;4.80;99.90;;;;;;4928713;29;20212;-83
2023/02/23 07:57:48;;;;;;;34.75;24.98;;;5.20;99.90;;;;;;4922837;29;20243;-80
2023/02/23 08:00:15;;;;;;;41.60;24.40;;;5.50;99.90;;;;;;4936557;29;20215;-81
2023/02/23 08:02:42;;;;;;;37.47;24.25;;;5.80;99.90;;;;;;4921082;29;20219;-80
2023/02/23 08:05:09;;;;;;;38.50;23.70;;;6.00;99.90;;;;;;4920775;29;20251;-81
2023/02/23 08:07:36;;;;;;;37.33;23.58;;;6.00;99.90;;;;;;4928349;29;20553;-81
2023/02/23 08:10:04;;;;;;;37.13;24.02;;;6.30;99.90;;;;;;4920600;29;20243;-79
2023/02/23 08:12:32;;;;;;;41.60;25.70;;;6.30;99.90;;;;;;4920195;29;20236;-80
2023/02/23 08:15:00;;;;;;;41.38;24.85;;;6.70;99.90;;;;;;4912111;29;20201;-78
2023/02/23 08:17:27;;;;;;;39.33;24.10;;;6.80;99.90;;;;;;4926788;29;20386;-79
2023/02/23 08:19:54;;;;;;;36.45;22.45;;;7.00;99.90;;;;;;4929021;29;20214;-80
2023/02/23 08:22:22;;;;;;;46.88;25.13;;;6.90;99.90;;;;;;4928178;29;20275;-81
2023/02/23 08:24:49;;;;;;;39.20;24.20;;;7.10;99.90;;;;;;4934274;29;20208;-80
2023/02/23 08:27:15;;;;;;;41.90;24.77;;;7.30;99.90;;;;;;4934615;29;20225;-82
2023/02/23 08:29:42;;;;;;;37.72;21.88;;;7.60;99.90;;;;;;4928132;29;20570;-81
2023/02/23 08:32:09;;;;;;;33.90;23.90;;;8.40;99.90;;;;;;4930141;29;20262;-80
2023/02/23 08:34:39;;;;;;;29.30;21.30;;;8.00;99.90;;;;;;4930374;29;20243;-81
2023/02/23 08:37:06;;;;;;;34.90;24.17;;;8.30;99.90;;;;;;4924542;29;20265;-80
2023/02/23 08:39:33;;;;;;;44.47;24.27;;;8.90;99.90;;;;;;4935669;29;20246;-81
2023/02/23 08:42:00;;;;;;;39.08;25.38;;;9.10;99.90;;;;;;4921822;29;20236;-80
2023/02/23 08:44:27;;;;;;;41.17;25.25;;;9.10;99.90;;;;;;4926114;29;20212;-82
2023/02/23 08:46:57;;;;;;;41.63;24.83;;;9.20;99.90;;;;;;4924654;29;20235;-79
2023/02/23 08:49:24;;;;;;;45.83;26.17;;;9.50;99.90;;;;;;4930260;29;20200;-80
2023/02/23 08:51:51;;;;;;;33.25;21.48;;;9.40;99.90;;;;;;4922898;29;20240;-80
2023/02/23 08:54:19;;;;;;;30.73;19.67;;;9.60;99.90;;;;;;4927186;29;20215;-81
2023/02/23 08:56:46;;;;;;;35.97;22.10;;;10.50;99.90;;;;;;4928011;29;20215;-81
2023/02/23 08:59:15;;;;;;;30.27;21.20;;;10.30;99.90;;;;;;4928351;29;20456;-80
2023/02/23 09:01:42;;;;;;;34.80;21.70;;;10.00;99.90;;;;;;4927892;29;20280;-80
2023/02/23 09:04:09;;;;;;;37.00;22.30;;;9.70;99.90;;;;;;4918961;29;20214;-80
2023/02/23 09:06:36;;;;;;;37.50;23.83;;;9.50;99.90;;;;;;4924634;29;21112;-80
2023/02/23 09:09:04;;;;;;;32.13;22.30;;;8.70;99.90;;;;;;4923431;29;20408;-79
2023/02/23 09:11:30;;;;;;;42.75;22.67;;;8.90;99.90;;;;;;4925302;29;20231;-82
2023/02/23 09:13:57;;;;;;;30.40;21.67;;;9.30;99.90;;;;;;4921586;29;20252;-79
2023/02/23 09:16:24;;;;;;;32.30;21.50;;;9.70;99.90;;;;;;4928280;29;20491;-82
2023/02/23 09:18:51;;;;;;;35.10;21.77;;;9.60;99.90;;;;;;4930329;29;20240;-81
2023/02/23 09:21:23;;;;;;;31.25;20.42;;;9.90;99.90;;;;;;4922655;29;20212;-79
2023/02/23 09:23:54;;;;;;;34.53;21.52;;;9.90;99.90;;;;;;4924713;29;20719;-82
2023/02/23 09:26:23;;;;;;;31.67;21.35;;;10.30;99.90;;;;;;4924149;29;20256;-79
2023/02/23 09:28:50;;;;;;;39.25;21.77;;;10.40;99.90;;;;;;4923987;29;20268;-80
2023/02/23 09:31:19;;;;;;;33.25;21.45;;;10.00;99.90;;;;;;4924609;29;20497;-81
2023/02/23 09:33:48;;;;;;;34.28;23.25;;;9.70;99.90;;;;;;4922334;29;20283;-82
2023/02/23 09:36:18;;;;;;;33.53;21.65;;;9.30;99.90;;;;;;4921418;29;20251;-81
2023/02/23 09:38:47;;;;;;;28.00;19.40;;;8.80;99.90;;;;;;4920315;29;20596;-80
2023/02/23 09:41:29;;;;;;;34.97;22.27;;;8.70;99.90;;;;;;4930709;29;20294;-80
2023/02/23 09:44:20;;;;;;;36.22;23.40;;;9.00;99.90;;;;;;4921990;29;20219;-81
2023/02/23 09:47:11;;;;;;;35.45;22.73;;;8.90;99.90;;;;;;4924775;29;20207;-82
2023/02/23 09:49:41;;;;;;;159.70;66.40;;;8.50;99.90;;;;;;4929911;29;20227;-81
2023/02/23 09:52:20;;;;;;;102.80;46.80;;;8.60;99.90;;;;;;4924568;29;20218;-81
2023/02/23 09:54:50;;;;;;;38.95;26.58;;;8.70;99.90;;;;;;4915130;29;20222;-81
2023/02/23 09:57:28;;;;;;;37.55;21.45;;;8.70;99.90;;;;;;4925059;29;20223;-80
2023/02/23 09:59:55;;;;;;;28.27;20.52;;;8.70;99.90;;;;;;4926132;29;20266;-80
2023/02/23 10:02:31;;;;;;;41.72;24.45;;;8.40;99.90;;;;;;4921423;29;20214;-80
2023/02/23 10:05:05;;;;;;;48.50;26.20;;;8.50;99.90;;;;;;4928066;29;20259;-80
2023/02/23 10:07:54;;;;;;;29.48;21.20;;;8.20;99.90;;;;;;4932074;29;20241;-82
2023/02/23 10:10:53;;;;;;;29.60;21.10;;;8.10;99.90;;;;;;4930541;29;20640;-80
2023/02/23 10:14:08;;;;;;;53.90;27.15;;;8.20;99.90;;;;;;4929030;29;20261;-80
2023/02/23 10:16:47;;;;;;;50.17;24.92;;;8.20;99.90;;;;;;4905642;29;20592;-80
2023/02/23 10:19:36;;;;;;;40.08;25.17;;;8.30;99.90;;;;;;4935927;29;20238;-80
2023/02/23 10:22:06;;;;;;;36.63;22.33;;;8.50;99.90;;;;;;4934280;29;20242;-82
2023/02/23 10:24:43;;;;;;;38.70;20.60;;;8.60;99.90;;;;;;4937020;29;20231;-80
2023/02/23 10:27:22;;;;;;;35.60;21.65;;;8.60;99.90;;;;;;4935544;29;20203;-78
2023/02/23 10:29:55;;;;;;;34.38;20.27;;;8.60;99.90;;;;;;4941080;29;20305;-83
2023/02/23 10:32:39;;;;;;;33.75;21.02;;;8.50;99.90;;;;;;4935793;29;20274;-81
2023/02/23 10:35:13;;;;;;;39.28;25.55;;;8.50;99.90;;;;;;4935860;29;20222;-80
2023/02/23 10:37:40;;;;;;;35.10;20.92;;;8.30;99.90;;;;;;4937161;29;20222;-80
2023/02/23 10:40:17;;;;;;;39.15;21.95;;;8.30;99.90;;;;;;4916705;29;20551;-81
2023/02/23 10:42:44;;;;;;;41.58;26.27;;;8.50;99.90;;;;;;4923132;29;20563;-81
2023/02/23 10:45:17;;;;;;;41.05;24.55;;;8.40;99.90;;;;;;4926020;29;20445;-82
2023/02/23 10:47:45;;;;;;;35.40;20.85;;;8.30;99.90;;;;;;4919131;29;20212;-81
2023/02/23 10:50:13;;;;;;;40.30;24.05;;;8.40;99.90;;;;;;4924968;29;20238;-82
2023/02/23 10:52:48;;;;;;;31.50;21.23;;;8.40;99.90;;;;;;4921866;29;20280;-81
2023/02/23 10:55:33;;;;;;;34.60;19.75;;;8.30;99.90;;;;;;4922151;29;20227;-82
2023/02/23 10:58:18;;;;;;;28.10;21.20;;;8.60;99.90;;;;;;4915544;29;20203;-82
2023/02/23 11:00:58;;;;;;;33.58;21.70;;;8.80;99.90;;;;;;4920064;29;20264;-81
2023/02/23 11:03:34;;;;;;;36.53;23.48;;;8.80;99.90;;;;;;4924126;29;20460;-82
2023/02/23 11:06:01;;;;;;;37.72;22.65;;;8.90;99.90;;;;;;4917964;29;20219;-82
2023/02/23 11:08:34;;;;;;;32.70;22.20;;;9.00;99.90;;;;;;4918317;29;20531;-80
2023/02/23 11:11:19;;;;;;;34.22;19.83;;;8.90;99.90;;;;;;4925180;29;20278;-81
2023/02/23 11:13:48;;;;;;;33.25;20.25;;;8.60;99.90;;;;;;4922975;29;20214;-80
2023/02/23 11:16:17;;;;;;;29.63;18.85;;;8.40;99.90;;;;;;4921892;29;20227;-80
2023/02/23 11:19:21;;;;;;;34.83;23.35;;;8.40;99.90;;;;;;4926151;29;20500;-80
2023/02/23 11:21:51;;;;;;;31.98;20.55;;;8.60;99.90;;;;;;4924397;29;20214;-82
2023/02/23 11:24:23;;;;;;;42.88;27.02;;;8.90;99.90;;;;;;4923269;29;20215;-83
2023/02/23 11:26:53;;;;;;;34.20;22.40;;;9.10;99.90;;;;;;4928313;29;20239;-81
2023/02/23 11:29:39;;;;;;;35.90;24.15;;;9.20;99.90;;;;;;4937109;29;20271;-84
2023/02/23 11:32:26;;;;;;;34.20;21.98;;;9.30;99.90;;;;;;4936258;29;20238;-81
2023/02/23 11:35:19;;;;;;;38.13;21.95;;;9.40;99.90;;;;;;4941089;29;20336;-82
2023/02/23 11:37:49;;;;;;;36.42;23.75;;;9.20;99.90;;;;;;4924313;29;20213;-81
2023/02/23 11:40:23;;;;;;;27.50;19.00;;;9.20;99.90;;;;;;4927268;29;20230;-82
2023/02/23 11:43:04;;;;;;;41.85;26.83;;;9.00;99.90;;;;;;4930820;29;20271;-82
2023/02/23 11:45:36;;;;;;;37.58;21.42;;;9.30;99.90;;;;;;4921011;29;20208;-81
2023/02/23 11:48:04;;;;;;;32.80;20.67;;;9.70;99.90;;;;;;4926663;29;20203;-80
2023/02/23 11:50:34;;;;;;;31.90;19.65;;;9.80;99.90;;;;;;4923761;29;20580;-80
2023/02/23 11:53:11;;;;;;;44.63;22.55;;;9.90;99.90;;;;;;4918465;29;21322;-80
2023/02/23 11:55:49;;;;;;;30.73;19.95;;;9.80;99.90;;;;;;4925592;29;20210;-81
2023/02/23 11:58:46;;;;;;;33.03;21.60;;;9.90;99.90;;;;;;4932214;29;20207;-81
2023/02/23 12:01:16;;;;;;;26.70;19.60;;;10.10;99.90;;;;;;4928978;29;20256;-83
2023/02/23 12:03:55;;;;;;;43.47;21.23;;;10.10;99.90;;;;;;4927046;29;20212;-80
2023/02/23 12:06:29;;;;;;;34.42;21.48;;;10.50;99.90;;;;;;4922929;29;20377;-81
2023/02/23 12:09:02;;;;;;;32.47;22.92;;;10.80;99.90;;;;;;4929680;29;20223;-82
2023/02/23 12:11:36;;;;;;;34.47;22.77;;;10.70;99.90;;;;;;4932456;29;20238;-82
2023/02/23 12:14:25;;;;;;;41.92;27.45;;;10.80;99.90;;;;;;4923215;29;20611;-80
2023/02/23 12:16:57;;;;;;;31.27;24.27;;;11.00;99.90;;;;;;4931967;29;20504;-81
2023/02/23 12:19:36;;;;;;;48.35;26.20;;;11.10;99.90;;;;;;4932465;29;20432;-80
2023/02/23 12:22:11;;;;;;;40.00;25.70;;;11.20;99.90;;;;;;4928925;29;20655;-80
2023/02/23 12:24:43;;;;;;;45.25;25.48;;;11.30;99.90;;;;;;4923840;29;20231;-83
2023/02/23 12:27:21;;;;;;;34.60;21.83;;;11.30;99.90;;;;;;4924980;29;20212;-85
2023/02/23 12:30:03;;;;;;;33.33;21.35;;;11.30;99.90;;;;;;4922792;29;20239;-81
2023/02/23 12:32:53;;;;;;;37.00;21.15;;;11.20;99.90;;;;;;4917961;29;20476;-82
2023/02/23 12:35:29;;;;;;;38.42;24.50;;;11.20;99.90;;;;;;4923199;29;20212;-81
2023/02/23 12:38:12;;;;;;;43.33;24.17;;;11.30;99.90;;;;;;4936118;29;20234;-83
2023/02/23 12:40:43;;;;;;;33.97;21.50;;;11.40;99.90;;;;;;4925601;29;20214;-82
2023/02/23 12:43:17;;;;;;;39.35;22.20;;;11.50;99.90;;;;;;4938357;29;20215;-82
2023/02/23 12:45:55;;;;;;;38.38;23.25;;;11.40;99.90;;;;;;4935375;29;20251;-82
2023/02/23 12:48:34;;;;;;;30.05;21.13;;;11.50;99.90;;;;;;4939402;29;20203;-81
2023/02/23 12:51:05;;;;;;;27.55;18.98;;;11.30;99.90;;;;;;4932008;29;20239;-81
2023/02/23 12:53:43;;;;;;;36.78;21.23;;;11.30;99.90;;;;;;4926851;29;20271;-80
2023/02/23 12:56:16;;;;;;;42.83;26.25;;;11.30;99.90;;;;;;4919314;29;20212;-84
2023/02/23 12:58:55;;;;;;;28.17;18.27;;;11.50;99.90;;;;;;4934468;29;20560;-81
2023/02/23 13:01:47;;;;;;;33.55;21.08;;;11.50;99.90;;;;;;4924923;29;20219;-81
2023/02/23 13:04:25;;;;;;;45.45;22.85;;;11.60;99.90;;;;;;4922978;29;20561;-82
2023/02/23 13:06:53;;;;;;;31.67;20.25;;;11.70;99.90;;;;;;4933656;29;20213;-81
2023/02/23 13:09:37;;;;;;;44.88;24.13;;;11.80;99.90;;;;;;4924199;29;20462;-82
2023/02/23 13:12:26;;;;;;;31.67;20.52;;;11.80;99.90;;;;;;4926140;29;20280;-79
2023/02/23 13:15:01;;;;;;;40.38;26.67;;;12.00;99.90;;;;;;4936069;29;20315;-82
2023/02/23 13:18:09;;;;;;;26.83;18.40;;;11.90;99.90;;;;;;4933748;29;20217;-82
2023/02/23 13:20:48;;;;;;;30.33;20.70;;;12.00;99.90;;;;;;4925926;29;20208;-80
2023/02/23 13:23:32;;;;;;;28.55;19.10;;;11.90;99.90;;;;;;4932601;29;20204;-79
2023/02/23 13:26:14;;;;;;;27.05;19.02;;;11.70;99.90;;;;;;4938083;29;20215;-82
2023/02/23 13:28:41;;;;;;;25.08;17.70;;;11.60;99.90;;;;;;4932926;29;20472;-80
2023/02/23 13:31:24;;;;;;;29.35;17.58;;;11.60;99.90;;;;;;4925121;29;20288;-82
2023/02/23 13:33:53;;;;;;;23.38;16.67;;;11.60;99.90;;;;;;4937771;29;20200;-82
2023/02/23 13:36:22;;;;;;;29.95;19.40;;;11.80;99.90;;;;;;4929602;29;20212;-81
2023/02/23 13:38:57;;;;;;;29.88;19.50;;;12.10;99.90;;;;;;4927559;29;20256;-81
2023/02/23 13:41:58;;;;;;;26.13;17.25;;;12.30;99.90;;;;;;4933676;29;20278;-81
2023/02/23 13:44:38;;;;;;;34.75;20.85;;;12.40;99.90;;;;;;4933305;29;20453;-80
2023/02/23 13:47:13;;;;;;;28.83;18.92;;;12.70;99.90;;;;;;4933438;29;20217;-81
2023/02/23 13:50:05;;;;;;;28.75;20.98;;;12.90;99.90;;;;;;4916878;29;20567;-81
2023/02/23 13:52:39;;;;;;;26.38;17.90;;;13.00;99.90;;;;;;4930997;29;20253;-81
2023/02/23 13:55:24;;;;;;;30.45;19.35;;;13.10;99.90;;;;;;4931869;29;20207;-82
2023/02/23 13:58:04;;;;;;;30.30;20.33;;;13.20;99.90;;;;;;4936477;29;20230;-83
2023/02/23 14:00:33;;;;;;;22.42;16.85;;;12.90;99.90;;;;;;4938653;29;20217;-83
2023/02/23 14:03:06;;;;;;;27.35;19.15;;;12.70;99.90;;;;;;4938422;29;20232;-83
2023/02/23 14:05:43;;;;;;;21.58;16.80;;;12.40;99.90;;;;;;4923682;29;20672;-81
2023/02/23 14:08:31;;;;;;;23.27;15.40;;;12.10;99.90;;;;;;4931606;29;20306;-82
2023/02/23 14:11:00;;;;;;;23.30;16.70;;;12.00;99.90;;;;;;4932800;29;20559;-82
2023/02/23 14:13:32;;;;;;;24.75;16.60;;;12.10;99.90;;;;;;4934298;29;20248;-80
2023/02/23 14:16:17;;;;;;;22.40;16.27;;;12.00;99.90;;;;;;4928578;29;20216;-81
2023/02/23 14:19:09;;;;;;;29.90;17.48;;;12.00;99.90;;;;;;4926687;29;20260;-81
2023/02/23 14:21:42;;;;;;;25.00;16.17;;;12.00;99.90;;;;;;4912224;29;20215;-82
2023/02/23 14:24:16;;;;;;;20.65;15.82;;;12.20;99.90;;;;;;4930570;29;20249;-83